createdAt,value
2018-12-30T00:00:43.945Z,10.83
2018-12-30T00:03:12.619Z,11.07
2018-12-30T00:05:42.010Z,10.40
2018-12-30T00:08:10.670Z,11.17
2018-12-30T00:10:40.062Z,11.07
2018-12-30T00:13:09.107Z,12.43
2018-12-30T00:15:38.132Z,11.10
2018-12-30T00:18:07.183Z,9.93
2018-12-30T00:20:36.574Z,10.83
2018-12-30T00:23:05.612Z,8.90
2018-12-30T00:25:35.134Z,9.20
2018-12-30T00:28:03.901Z,10.13
2018-12-30T00:30:32.730Z,10.33
2018-12-30T00:33:01.356Z,10.70
2018-12-30T00:35:30.367Z,9.67
2018-12-30T00:37:59.069Z,10.07
2018-12-30T00:40:27.862Z,8.87
2018-12-30T00:42:56.479Z,9.43
2018-12-30T00:45:25.122Z,9.50
2018-12-30T00:47:54.047Z,10.10
2018-12-30T00:50:22.804Z,9.23
2018-12-30T00:52:52.030Z,10.90
2018-12-30T00:55:20.935Z,9.73
2018-12-30T00:57:49.704Z,9.40
2018-12-30T01:00:18.703Z,10.00
2018-12-30T01:02:47.628Z,9.47
2018-12-30T01:05:16.758Z,10.73
2018-12-30T01:07:45.787Z,9.90
2018-12-30T01:10:14.519Z,11.10
2018-12-30T01:12:43.644Z,10.47
2018-12-30T01:15:12.415Z,11.17
2018-12-30T01:17:41.146Z,10.03
2018-12-30T01:20:10.158Z,9.77
2018-12-30T01:22:38.796Z,10.07
2018-12-30T01:25:08.010Z,10.53
2018-12-30T01:27:37.043Z,11.50
2018-12-30T01:30:06.255Z,10.00
2018-12-30T01:32:34.930Z,11.37
2018-12-30T01:35:03.770Z,9.93
2018-12-30T01:37:32.678Z,10.53
2018-12-30T01:40:01.416Z,11.20
2018-12-30T01:42:30.200Z,10.57
2018-12-30T01:44:58.904Z,9.97
2018-12-30T01:47:28.503Z,10.47
2018-12-30T01:49:57.427Z,9.80
2018-12-30T01:52:26.191Z,10.83
2018-12-30T01:54:55.029Z,10.90
2018-12-30T01:57:23.927Z,10.33
2018-12-30T01:59:53.641Z,10.40
2018-12-30T02:02:22.672Z,10.83
2018-12-30T02:04:51.706Z,9.80
2018-12-30T02:07:20.538Z,10.43
2018-12-30T02:09:49.204Z,9.47
2018-12-30T02:12:17.852Z,10.93
2018-12-30T02:14:46.722Z,10.50
2018-12-30T02:17:15.499Z,9.53
2018-12-30T02:19:44.135Z,10.37
2018-12-30T02:22:13.145Z,9.03
2018-12-30T02:24:41.824Z,10.23
2018-12-30T02:27:11.194Z,10.93
2018-12-30T02:29:39.862Z,10.77
2018-12-30T02:32:09.057Z,11.20
2018-12-30T02:34:37.725Z,9.97
2018-12-30T02:37:06.732Z,11.17
2018-12-30T02:39:35.395Z,10.33
2018-12-30T02:42:04.403Z,9.57
2018-12-30T02:44:33.431Z,10.20
2018-12-30T02:47:02.846Z,10.17
2018-12-30T02:49:32.072Z,9.80
2018-12-30T02:52:01.120Z,10.13
2018-12-30T02:54:30.145Z,10.43
2018-12-30T02:56:58.896Z,10.18
2018-12-30T02:59:27.631Z,10.58
2018-12-30T03:01:57.220Z,9.97
2018-12-30T03:04:25.885Z,10.43
2018-12-30T03:06:54.895Z,10.53
2018-12-30T03:09:23.555Z,11.33
2018-12-30T03:11:52.558Z,10.63
2018-12-30T03:14:21.825Z,10.55
2018-12-30T03:16:50.649Z,10.28
2018-12-30T03:19:19.847Z,10.78
2018-12-30T03:21:49.071Z,9.68
2018-12-30T03:24:18.208Z,10.10
2018-12-30T03:26:47.232Z,10.72
2018-12-30T03:29:15.983Z,10.53
2018-12-30T03:31:45.199Z,10.98
2018-12-30T03:34:14.222Z,10.68
2018-12-30T03:36:43.257Z,12.10
2018-12-30T03:39:11.906Z,12.33
2018-12-30T03:41:40.567Z,10.68
2018-12-30T03:44:09.393Z,10.63
2018-12-30T03:46:38.219Z,10.68
2018-12-30T03:49:07.051Z,10.98
2018-12-30T03:51:35.951Z,10.88
2018-12-30T03:54:05.083Z,10.00
2018-12-30T03:56:33.940Z,11.05
2018-12-30T03:59:03.332Z,10.15
2018-12-30T04:01:32.373Z,11.63
2018-12-30T04:04:01.227Z,10.63
2018-12-30T04:06:29.851Z,10.53
2018-12-30T04:08:59.067Z,10.00
2018-12-30T04:11:28.285Z,11.33
2018-12-30T04:13:57.324Z,10.88
2018-12-30T04:16:26.182Z,11.73
2018-12-30T04:18:55.014Z,11.05
2018-12-30T04:21:23.639Z,11.13
2018-12-30T04:23:52.347Z,9.97
2018-12-30T04:26:21.114Z,10.87
2018-12-30T04:28:50.128Z,10.97
2018-12-30T04:31:18.779Z,10.80
2018-12-30T04:33:47.793Z,10.07
2018-12-30T04:36:16.819Z,11.17
2018-12-30T04:38:45.484Z,11.40
2018-12-30T04:41:14.123Z,11.20
2018-12-30T04:43:43.138Z,11.43
2018-12-30T04:46:12.152Z,9.90
2018-12-30T04:48:40.816Z,11.50
2018-12-30T04:51:09.652Z,11.18
2018-12-30T04:53:38.842Z,10.93
2018-12-30T04:56:07.562Z,10.68
2018-12-30T04:58:36.904Z,10.65
2018-12-30T05:01:05.941Z,11.10
2018-12-30T05:03:34.973Z,10.75
2018-12-30T05:06:04.189Z,10.88
2018-12-30T05:08:33.230Z,11.65
2018-12-30T05:11:02.265Z,11.40
2018-12-30T05:13:30.902Z,11.13
2018-12-30T05:15:59.563Z,10.30
2018-12-30T05:18:28.390Z,12.03
2018-12-30T05:20:57.023Z,11.22
2018-12-30T05:23:26.217Z,11.05
2018-12-30T05:25:55.155Z,10.23
2018-12-30T05:28:23.982Z,11.48
2018-12-30T05:30:52.743Z,11.53
2018-12-30T05:33:21.663Z,11.93
2018-12-30T05:35:51.292Z,11.12
2018-12-30T05:38:20.034Z,11.10
2018-12-30T05:40:49.234Z,11.18
2018-12-30T05:43:17.901Z,10.33
2018-12-30T05:45:46.739Z,10.32
2018-12-30T05:48:15.835Z,10.60
2018-12-30T05:50:44.593Z,11.35
2018-12-30T05:53:13.230Z,10.63
2018-12-30T05:55:41.858Z,10.77
2018-12-30T05:58:10.688Z,11.78
2018-12-30T06:00:39.690Z,11.05
2018-12-30T06:03:08.367Z,9.58
2018-12-30T06:05:37.278Z,10.98
2018-12-30T06:08:06.027Z,10.60
2018-12-30T06:10:34.654Z,10.05
2018-12-30T06:13:03.310Z,10.65
2018-12-30T06:15:32.210Z,10.13
2018-12-30T06:18:00.970Z,11.93
2018-12-30T06:20:30.079Z,10.07
2018-12-30T06:22:58.834Z,10.33
2018-12-30T06:25:27.650Z,9.97
2018-12-30T06:27:56.869Z,10.08
2018-12-30T06:30:25.519Z,9.80
2018-12-30T06:32:54.726Z,9.57
2018-12-30T06:35:23.402Z,9.67
2018-12-30T06:37:52.587Z,9.43
2018-12-30T06:40:21.268Z,10.83
2018-12-30T06:42:50.079Z,9.37
2018-12-30T06:45:18.719Z,10.47
2018-12-30T06:47:47.730Z,8.63
2018-12-30T06:50:16.764Z,10.10
2018-12-30T06:52:45.982Z,9.60
2018-12-30T06:55:15.019Z,9.20
2018-12-30T06:57:43.950Z,9.37
2018-12-30T07:00:13.076Z,9.77
2018-12-30T07:02:41.738Z,9.23
2018-12-30T07:05:10.619Z,9.33
2018-12-30T07:07:39.397Z,9.43
2018-12-30T07:10:08.040Z,9.13
2018-12-30T07:12:36.673Z,8.83
2018-12-30T07:15:05.554Z,9.07
2018-12-30T07:17:34.343Z,9.03
2018-12-30T07:20:03.354Z,9.53
2018-12-30T07:22:32.484Z,9.33
2018-12-30T07:25:01.692Z,8.70
2018-12-30T07:27:30.930Z,8.70
2018-12-30T07:30:00.249Z,10.20
2018-12-30T07:32:28.911Z,9.30
2018-12-30T07:34:57.530Z,8.47
2018-12-30T07:37:26.412Z,8.47
2018-12-30T07:39:55.491Z,9.50
2018-12-30T07:42:24.716Z,8.90
2018-12-30T07:44:53.462Z,9.40
2018-12-30T07:47:22.100Z,8.50
2018-12-30T07:49:50.424Z,8.73
2018-12-30T07:52:19.751Z,8.57
2018-12-30T07:54:48.787Z,8.40
2018-12-30T07:57:17.815Z,9.33
2018-12-30T07:59:46.454Z,9.13
2018-12-30T08:02:15.295Z,9.07
2018-12-30T08:04:44.214Z,9.13
2018-12-30T08:07:12.968Z,8.30
2018-12-30T08:09:41.978Z,9.37
2018-12-30T08:12:10.618Z,9.50
2018-12-30T08:14:39.844Z,9.03
2018-12-30T08:17:09.063Z,9.00
2018-12-30T08:19:37.719Z,9.17
2018-12-30T08:22:06.736Z,7.97
2018-12-30T08:24:35.577Z,9.83
2018-12-30T08:27:04.599Z,9.60
2018-12-30T08:29:33.264Z,8.73
2018-12-30T08:32:02.170Z,8.27
2018-12-30T08:34:30.916Z,9.17
2018-12-30T08:36:59.547Z,9.20
2018-12-30T08:39:28.382Z,8.83
2018-12-30T08:41:57.075Z,8.33
2018-12-30T08:44:25.899Z,9.83
2018-12-30T08:46:56.309Z,11.00
2018-12-30T08:49:25.123Z,9.67
2018-12-30T08:51:53.931Z,9.33
2018-12-30T08:54:22.759Z,9.60
2018-12-30T08:56:51.967Z,9.23
2018-12-30T08:59:21.193Z,9.53
2018-12-30T09:01:50.130Z,9.77
2018-12-30T09:04:19.258Z,9.63
2018-12-30T09:06:48.292Z,9.57
2018-12-30T09:09:16.937Z,9.57
2018-12-30T09:11:45.583Z,9.17
2018-12-30T09:14:14.596Z,8.87
2018-12-30T09:16:43.725Z,8.43
2018-12-30T09:19:12.481Z,8.70
2018-12-30T09:21:41.387Z,8.27
2018-12-30T09:24:10.131Z,8.40
2018-12-30T09:26:38.970Z,7.57
2018-12-30T09:29:07.984Z,8.03
2018-12-30T09:31:36.641Z,8.00
2018-12-30T09:34:05.652Z,7.77
2018-12-30T09:36:34.586Z,6.67
2018-12-30T09:39:04.353Z,6.67
2018-12-30T09:41:33.527Z,6.73
2018-12-30T09:44:02.755Z,6.83
2018-12-30T09:46:31.546Z,6.13
2018-12-30T09:49:00.624Z,7.10
2018-12-30T09:51:29.836Z,7.73
2018-12-30T09:53:58.507Z,6.97
2018-12-30T09:56:27.414Z,6.80
2018-12-30T09:58:56.540Z,6.57
2018-12-30T10:01:25.179Z,6.23
2018-12-30T10:03:54.002Z,6.27
2018-12-30T10:06:22.671Z,6.23
2018-12-30T10:08:51.495Z,5.67
2018-12-30T10:11:20.133Z,8.60
2018-12-30T10:13:49.144Z,5.83
2018-12-30T10:16:17.809Z,5.77
2018-12-30T10:18:46.521Z,6.13
2018-12-30T10:21:15.255Z,5.63
2018-12-30T10:23:44.670Z,4.90
2018-12-30T10:26:13.509Z,4.37
2018-12-30T10:28:42.365Z,4.70
2018-12-30T10:31:11.270Z,5.13
2018-12-30T10:33:40.408Z,4.87
2018-12-30T10:36:09.240Z,5.00
2018-12-30T10:38:38.163Z,4.93
2018-12-30T10:41:07.304Z,5.33
2018-12-30T10:43:36.323Z,5.47
2018-12-30T10:46:05.456Z,5.47
2018-12-30T10:48:34.212Z,5.97
2018-12-30T10:51:03.409Z,6.00
2018-12-30T10:53:32.444Z,5.33
2018-12-30T10:56:01.577Z,4.60
2018-12-30T10:58:30.603Z,5.53
2018-12-30T11:00:59.346Z,4.90
2018-12-30T11:03:27.988Z,5.90
2018-12-30T11:05:57.005Z,6.03
2018-12-30T11:08:25.664Z,6.03
2018-12-30T11:10:54.279Z,5.53
2018-12-30T11:13:22.924Z,6.30
2018-12-30T11:15:51.572Z,6.30
2018-12-30T11:18:20.971Z,5.47
2018-12-30T11:20:49.994Z,6.03
2018-12-30T11:23:18.730Z,6.13
2018-12-30T11:25:47.868Z,6.10
2018-12-30T11:28:16.509Z,6.23
2018-12-30T11:30:45.627Z,5.97
2018-12-30T11:33:14.379Z,6.57
2018-12-30T11:35:43.297Z,6.70
2018-12-30T11:38:12.613Z,6.97
2018-12-30T11:40:41.267Z,6.90
2018-12-30T11:43:10.281Z,5.87
2018-12-30T11:45:39.314Z,6.23
2018-12-30T11:48:08.343Z,6.10
2018-12-30T11:50:37.567Z,6.50
2018-12-30T11:53:06.228Z,6.93
2018-12-30T11:55:35.430Z,6.70
2018-12-30T11:58:04.366Z,6.40
2018-12-30T12:00:33.497Z,5.53
2018-12-30T12:03:02.714Z,5.60
2018-12-30T12:05:31.947Z,5.80
2018-12-30T12:08:00.590Z,4.97
2018-12-30T12:10:29.519Z,5.27
2018-12-30T12:12:58.258Z,5.10
2018-12-30T12:15:27.179Z,4.90
2018-12-30T12:17:56.207Z,4.90
2018-12-30T12:20:24.954Z,4.50
2018-12-30T12:22:53.591Z,4.43
2018-12-30T12:25:22.516Z,5.30
2018-12-30T12:27:51.327Z,4.63
2018-12-30T12:30:20.474Z,4.33
2018-12-30T12:32:49.408Z,4.70
2018-12-30T12:35:18.159Z,4.70
2018-12-30T12:37:47.165Z,4.20
2018-12-30T12:40:16.209Z,4.70
2018-12-30T12:42:44.867Z,5.20
2018-12-30T12:45:13.967Z,4.50
2018-12-30T12:47:42.730Z,5.20
2018-12-30T12:50:11.355Z,5.10
2018-12-30T12:52:39.983Z,5.43
2018-12-30T12:55:08.631Z,4.67
2018-12-30T12:57:37.550Z,4.80
2018-12-30T13:00:07.783Z,5.00
2018-12-30T13:02:36.885Z,4.70
2018-12-30T13:05:05.812Z,4.30
2018-12-30T13:07:34.552Z,4.93
2018-12-30T13:10:03.382Z,4.70
2018-12-30T13:12:32.027Z,4.70
2018-12-30T13:15:00.945Z,4.17
2018-12-30T13:17:30.074Z,5.30
2018-12-30T13:19:58.393Z,4.50
2018-12-30T13:22:27.446Z,4.43
2018-12-30T13:24:56.187Z,4.50
2018-12-30T13:27:25.211Z,4.47
2018-12-30T13:29:53.531Z,4.27
2018-12-30T13:32:22.682Z,4.70
2018-12-30T13:34:51.343Z,4.67
2018-12-30T13:37:20.350Z,4.30
2018-12-30T13:39:49.009Z,4.23
2018-12-30T13:42:17.835Z,4.00
2018-12-30T13:44:46.664Z,4.47
2018-12-30T13:47:15.313Z,4.47
2018-12-30T13:49:44.314Z,4.50
2018-12-30T13:52:12.975Z,4.07
2018-12-30T13:54:47.728Z,5.17
2018-12-30T13:57:12.422Z,4.57
2018-12-30T13:59:41.027Z,4.83
2018-12-30T14:02:09.958Z,4.93
2018-12-30T14:04:38.867Z,4.57
2018-12-30T14:07:07.547Z,5.33
2018-12-30T14:09:36.756Z,4.80
2018-12-30T14:12:05.420Z,5.40
2018-12-30T14:14:34.322Z,5.30
2018-12-30T14:17:03.070Z,4.63
2018-12-30T14:19:31.701Z,5.20
2018-12-30T14:22:00.342Z,4.17
2018-12-30T14:24:29.368Z,5.57
2018-12-30T14:26:59.993Z,5.83
2018-12-30T14:29:29.378Z,6.10
2018-12-30T14:31:58.412Z,5.20
2018-12-30T14:34:27.059Z,5.73
2018-12-30T14:36:56.370Z,4.97
2018-12-30T14:39:25.694Z,5.60
2018-12-30T14:41:54.920Z,5.50
2018-12-30T14:44:23.955Z,4.90
2018-12-30T14:46:52.891Z,5.10
2018-12-30T14:49:21.636Z,5.20
2018-12-30T14:51:50.652Z,5.87
2018-12-30T14:54:19.871Z,5.67
2018-12-30T14:56:48.532Z,5.70
2018-12-30T14:59:17.346Z,5.43
2018-12-30T15:01:46.282Z,5.33
2018-12-30T15:04:15.019Z,6.60
2018-12-30T15:06:43.668Z,5.80
2018-12-30T15:09:12.691Z,5.67
2018-12-30T15:11:41.542Z,6.40
2018-12-30T15:14:10.547Z,5.63
2018-12-30T15:16:39.574Z,6.13
2018-12-30T15:19:08.504Z,5.77
2018-12-30T15:21:37.264Z,5.83
2018-12-30T15:24:05.912Z,4.90
2018-12-30T15:26:35.294Z,5.50
2018-12-30T15:29:04.526Z,6.43
2018-12-30T15:31:33.183Z,16.83
2018-12-30T15:34:01.812Z,7.50
2018-12-30T15:36:30.730Z,6.37
2018-12-30T15:38:59.865Z,6.93
2018-12-30T15:41:29.079Z,6.00
2018-12-30T15:43:58.309Z,6.57
2018-12-30T15:46:27.246Z,5.93
2018-12-30T15:48:56.002Z,6.90
2018-12-30T15:51:25.009Z,6.63
2018-12-30T15:53:53.683Z,7.00
2018-12-30T15:56:22.870Z,6.07
2018-12-30T15:58:51.524Z,7.03
2018-12-30T16:01:20.538Z,5.93
2018-12-30T16:03:49.562Z,6.77
2018-12-30T16:06:18.577Z,5.83
2018-12-30T16:08:47.816Z,6.53
2018-12-30T16:11:16.467Z,5.50
2018-12-30T16:13:45.495Z,5.63
2018-12-30T16:16:14.522Z,6.10
2018-12-30T16:18:43.548Z,6.53
2018-12-30T16:21:12.769Z,5.93
2018-12-30T16:23:41.808Z,6.17
2018-12-30T16:26:10.838Z,6.47
2018-12-30T16:28:39.865Z,5.97
2018-12-30T16:31:08.523Z,5.97
2018-12-30T16:33:37.728Z,5.03
2018-12-30T16:36:06.948Z,6.67
2018-12-30T16:38:35.591Z,5.17
2018-12-30T16:41:04.618Z,5.53
2018-12-30T16:43:34.692Z,5.80
2018-12-30T16:46:03.795Z,5.20
2018-12-30T16:48:32.794Z,5.70
2018-12-30T16:51:01.543Z,6.03
2018-12-30T16:53:30.745Z,6.33
2018-12-30T16:55:59.972Z,5.60
2018-12-30T16:58:28.914Z,5.43
2018-12-30T17:00:58.038Z,5.80
2018-12-30T17:03:26.685Z,5.83
2018-12-30T17:05:55.331Z,6.13
2018-12-30T17:08:23.955Z,5.57
2018-12-30T17:10:52.980Z,5.90
2018-12-30T17:13:21.627Z,5.73
2018-12-30T17:15:50.276Z,5.90
2018-12-30T17:18:18.967Z,6.23
2018-12-30T17:20:47.913Z,6.33
2018-12-30T17:23:16.579Z,6.10
2018-12-30T17:25:45.586Z,5.90
2018-12-30T17:28:14.287Z,6.40
2018-12-30T17:30:43.068Z,5.83
2018-12-30T17:33:12.081Z,5.50
2018-12-30T17:35:41.111Z,6.10
2018-12-30T17:38:09.769Z,5.73
2018-12-30T17:40:38.951Z,6.73
2018-12-30T17:43:07.631Z,5.87
2018-12-30T17:45:36.271Z,6.30
2018-12-30T17:48:05.470Z,7.33
2018-12-30T17:50:34.514Z,5.97
2018-12-30T17:53:03.539Z,6.77
2018-12-30T17:55:32.565Z,7.03
2018-12-30T17:58:01.224Z,6.17
2018-12-30T18:00:30.236Z,7.10
2018-12-30T18:02:58.885Z,6.03
2018-12-30T18:05:28.089Z,6.50
2018-12-30T18:07:56.746Z,6.43
2018-12-30T18:10:25.575Z,6.03
2018-12-30T18:12:54.219Z,6.40
2018-12-30T18:15:23.420Z,6.00
2018-12-30T18:17:52.082Z,6.53
2018-12-30T18:20:21.098Z,6.93
2018-12-30T18:22:50.461Z,6.47
2018-12-30T18:25:19.551Z,6.00
2018-12-30T18:27:48.575Z,7.40
2018-12-30T18:30:17.222Z,6.20
2018-12-30T18:32:46.434Z,6.17
2018-12-30T18:35:15.106Z,5.67
2018-12-30T18:37:43.944Z,5.83
2018-12-30T18:40:12.947Z,6.73
2018-12-30T18:42:41.971Z,6.33
2018-12-30T18:45:10.907Z,6.50
2018-12-30T18:47:39.654Z,7.10
2018-12-30T18:50:09.216Z,6.50
2018-12-30T18:52:38.290Z,6.57
2018-12-30T18:55:07.156Z,6.00
2018-12-30T18:57:35.977Z,7.40
2018-12-30T19:00:05.387Z,6.97
2018-12-30T19:02:34.596Z,6.60
2018-12-30T19:05:03.728Z,6.17
2018-12-30T19:07:32.857Z,7.03
2018-12-30T19:10:01.207Z,7.03
2018-12-30T19:12:29.959Z,6.97
2018-12-30T19:14:58.585Z,6.90
2018-12-30T19:17:27.235Z,6.83
2018-12-30T19:19:56.139Z,7.13
2018-12-30T19:22:25.275Z,6.90
2018-12-30T19:24:54.488Z,7.13
2018-12-30T19:27:23.280Z,7.50
2018-12-30T19:29:51.627Z,7.10
2018-12-30T19:32:20.429Z,6.73
2018-12-30T19:34:49.240Z,7.13
2018-12-30T19:37:18.262Z,7.20
2018-12-30T19:39:47.300Z,7.80
2018-12-30T19:42:16.127Z,7.87
2018-12-30T19:44:45.160Z,7.10
2018-12-30T19:47:14.286Z,8.63
2018-12-30T19:49:43.043Z,8.73
2018-12-30T19:52:11.671Z,8.87
2018-12-30T19:54:40.486Z,8.60
2018-12-30T19:57:09.422Z,8.70
2018-12-30T19:59:38.516Z,9.23
2018-12-30T20:02:07.772Z,9.30
2018-12-30T20:04:40.621Z,10.30
2018-12-30T20:07:07.612Z,9.73
2018-12-30T20:09:36.635Z,9.13
2018-12-30T20:12:05.857Z,10.03
2018-12-30T20:14:34.729Z,9.93
2018-12-30T20:17:03.877Z,9.53
2018-12-30T20:19:32.586Z,9.47
2018-12-30T20:22:01.589Z,9.73
2018-12-30T20:24:30.277Z,9.03
2018-12-30T20:26:59.543Z,10.00
2018-12-30T20:29:28.521Z,9.90
2018-12-30T20:31:57.424Z,9.43
2018-12-30T20:34:26.852Z,9.53
2018-12-30T20:36:56.066Z,9.73
2018-12-30T20:39:25.190Z,9.03
2018-12-30T20:41:54.319Z,9.37
2018-12-30T20:44:23.447Z,9.70
2018-12-30T20:46:52.095Z,9.47
2018-12-30T20:49:21.116Z,9.77
2018-12-30T20:51:49.767Z,10.10
2018-12-30T20:54:18.881Z,9.90
2018-12-30T20:56:48.207Z,9.90
2018-12-30T20:59:17.304Z,9.60
2018-12-30T21:01:46.099Z,9.90
2018-12-30T21:04:16.072Z,10.20
2018-12-30T21:06:44.735Z,10.33
2018-12-30T21:09:13.568Z,9.73
2018-12-30T21:11:42.199Z,11.30
2018-12-30T21:14:10.835Z,10.30
2018-12-30T21:16:39.858Z,9.63
2018-12-30T21:19:08.514Z,10.30
2018-12-30T21:21:37.385Z,9.10
2018-12-30T21:24:06.559Z,10.80
2018-12-30T21:26:35.579Z,10.47
2018-12-30T21:29:04.607Z,9.37
2018-12-30T21:31:33.551Z,9.33
2018-12-30T21:34:02.317Z,10.50
2018-12-30T21:36:31.200Z,10.37
2018-12-30T21:39:00.236Z,9.67
2018-12-30T21:41:28.988Z,9.73
2018-12-30T21:43:58.003Z,9.43
2018-12-30T21:46:26.668Z,9.43
2018-12-30T21:48:55.492Z,9.40
2018-12-30T21:51:24.697Z,10.10
2018-12-30T21:53:53.338Z,9.47
2018-12-30T21:56:21.984Z,8.47
2018-12-30T21:58:50.998Z,9.83
2018-12-30T22:01:19.656Z,9.47
2018-12-30T22:03:48.287Z,9.10
2018-12-30T22:06:16.914Z,8.40
2018-12-30T22:08:45.943Z,9.20
2018-12-30T22:11:14.600Z,8.83
2018-12-30T22:13:43.797Z,8.57
2018-12-30T22:16:12.838Z,8.50
2018-12-30T22:18:42.355Z,9.63
2018-12-30T22:21:11.104Z,8.87
2018-12-30T22:23:39.742Z,8.67
2018-12-30T22:26:08.396Z,9.70
2018-12-30T22:28:37.594Z,9.30
2018-12-30T22:31:06.805Z,8.97
2018-12-30T22:33:35.843Z,9.77
2018-12-30T22:36:04.875Z,9.97
2018-12-30T22:38:33.914Z,9.57
2018-12-30T22:41:02.731Z,9.27
2018-12-30T22:43:31.669Z,11.10
2018-12-30T22:46:00.432Z,10.27
2018-12-30T22:48:29.273Z,9.17
2018-12-30T22:50:58.103Z,10.57
2018-12-30T22:53:26.918Z,9.87
2018-12-30T22:55:56.121Z,10.70
2018-12-30T22:58:25.349Z,11.30
2018-12-30T23:01:12.916Z,10.37
2018-12-30T23:03:41.726Z,9.60
2018-12-30T23:06:10.637Z,10.33
2018-12-30T23:08:39.374Z,8.47
2018-12-30T23:11:08.401Z,9.43
2018-12-30T23:13:37.291Z,9.60
2018-12-30T23:16:06.096Z,10.13
2018-12-30T23:18:35.197Z,10.37
2018-12-30T23:21:03.948Z,9.43
2018-12-30T23:23:32.854Z,9.00
2018-12-30T23:26:01.616Z,9.47
2018-12-30T23:28:31.007Z,10.50
2018-12-30T23:31:00.234Z,9.47
2018-12-30T23:33:29.559Z,9.63
2018-12-30T23:35:58.327Z,9.77
2018-12-30T23:38:27.432Z,10.20
2018-12-30T23:40:56.748Z,9.73
2018-12-30T23:43:25.790Z,9.63
2018-12-30T23:45:54.499Z,9.80
2018-12-30T23:48:23.836Z,9.90
2018-12-30T23:50:52.619Z,10.33
2018-12-30T23:53:21.712Z,8.23
2018-12-30T23:55:50.744Z,9.33
2018-12-30T23:58:19.668Z,9.47
